sensor_id;sensor_type;location;lat;lon;timestamp;temperature;humidity
34877;DHT22;21086;44.780;17.194;2023-01-16T00:01:56;11.50;99.90
34877;DHT22;21086;44.780;17.194;2023-01-16T00:04:23;11.50;99.90
34877;DHT22;21086;44.780;17.194;2023-01-16T00:06:50;11.60;99.90
34877;DHT22;21086;44.780;17.194;2023-01-16T00:09:18;11.60;99.90
34877;DHT22;21086;44.780;17.194;2023-01-16T00:11:45;11.60;99.90
34877;DHT22;21086;44.780;17.194;2023-01-16T00:14:12;11.60;99.90
34877;DHT22;21086;44.780;17.194;2023-01-16T00:16:40;11.60;99.90
34877;DHT22;21086;44.780;17.194;2023-01-16T00:19:07;11.60;99.90
34877;DHT22;21086;44.780;17.194;2023-01-16T00:21:34;11.60;99.90
34877;DHT22;21086;44.780;17.194;2023-01-16T00:24:01;11.60;99.90
34877;DHT22;21086;44.780;17.194;2023-01-16T00:26:28;11.70;99.90
34877;DHT22;21086;44.780;17.194;2023-01-16T00:28:56;11.70;99.90
34877;DHT22;21086;44.780;17.194;2023-01-16T00:31:23;11.70;99.90
34877;DHT22;21086;44.780;17.194;2023-01-16T00:33:52;11.80;99.90
34877;DHT22;21086;44.780;17.194;2023-01-16T00:36:19;11.80;99.90
34877;DHT22;21086;44.780;17.194;2023-01-16T00:38:46;11.80;99.90
34877;DHT22;21086;44.780;17.194;2023-01-16T00:41:12;11.80;99.90
34877;DHT22;21086;44.780;17.194;2023-01-16T00:43:40;11.70;99.90
34877;DHT22;21086;44.780;17.194;2023-01-16T00:46:06;11.80;99.90
34877;DHT22;21086;44.780;17.194;2023-01-16T00:48:34;11.80;99.90
34877;DHT22;21086;44.780;17.194;2023-01-16T00:51:01;11.80;99.90
34877;DHT22;21086;44.780;17.194;2023-01-16T00:53:33;11.80;99.90
34877;DHT22;21086;44.780;17.194;2023-01-16T00:56:00;11.80;99.90
34877;DHT22;21086;44.780;17.194;2023-01-16T00:58:27;11.70;99.90
34877;DHT22;21086;44.780;17.194;2023-01-16T01:00:54;11.70;99.90
34877;DHT22;21086;44.780;17.194;2023-01-16T01:03:21;11.70;99.90
34877;DHT22;21086;44.780;17.194;2023-01-16T01:05:48;11.90;99.90
34877;DHT22;21086;44.780;17.194;2023-01-16T01:08:15;11.90;99.90
34877;DHT22;21086;44.780;17.194;2023-01-16T01:10:42;11.90;99.90
34877;DHT22;21086;44.780;17.194;2023-01-16T01:13:09;12.00;99.90
34877;DHT22;21086;44.780;17.194;2023-01-16T01:15:37;12.00;99.90
34877;DHT22;21086;44.780;17.194;2023-01-16T01:18:04;12.00;99.90
34877;DHT22;21086;44.780;17.194;2023-01-16T01:20:32;12.00;99.90
34877;DHT22;21086;44.780;17.194;2023-01-16T01:22:58;12.00;99.90
34877;DHT22;21086;44.780;17.194;2023-01-16T01:25:25;12.00;99.90
34877;DHT22;21086;44.780;17.194;2023-01-16T01:27:52;12.00;99.90
34877;DHT22;21086;44.780;17.194;2023-01-16T01:30:19;12.00;99.90
34877;DHT22;21086;44.780;17.194;2023-01-16T01:32:47;12.00;99.90
34877;DHT22;21086;44.780;17.194;2023-01-16T01:35:14;12.10;99.90
34877;DHT22;21086;44.780;17.194;2023-01-16T01:37:43;12.10;99.90
34877;DHT22;21086;44.780;17.194;2023-01-16T01:40:11;12.10;99.90
34877;DHT22;21086;44.780;17.194;2023-01-16T01:42:39;12.10;99.90
34877;DHT22;21086;44.780;17.194;2023-01-16T01:45:16;12.10;99.90
34877;DHT22;21086;44.780;17.194;2023-01-16T01:47:47;12.20;99.90
34877;DHT22;21086;44.780;17.194;2023-01-16T01:52:50;12.20;99.90
34877;DHT22;21086;44.780;17.194;2023-01-16T01:55:20;12.10;99.90
34877;DHT22;21086;44.780;17.194;2023-01-16T01:57:57;12.20;99.90
34877;DHT22;21086;44.780;17.194;2023-01-16T02:00:27;12.20;99.90
34877;DHT22;21086;44.780;17.194;2023-01-16T02:03:08;12.10;99.90
34877;DHT22;21086;44.780;17.194;2023-01-16T02:05:43;12.10;99.90
34877;DHT22;21086;44.780;17.194;2023-01-16T02:08:17;12.00;99.90
34877;DHT22;21086;44.780;17.194;2023-01-16T02:11:09;12.00;99.90
34877;DHT22;21086;44.780;17.194;2023-01-16T02:13:57;12.10;99.90
34877;DHT22;21086;44.780;17.194;2023-01-16T02:16:25;12.20;99.90
34877;DHT22;21086;44.780;17.194;2023-01-16T02:19:21;12.20;99.90
34877;DHT22;21086;44.780;17.194;2023-01-16T02:28:04;12.10;99.90
34877;DHT22;21086;44.780;17.194;2023-01-16T02:45:05;11.60;99.90
34877;DHT22;21086;44.780;17.194;2023-01-16T02:51:03;11.30;99.90
34877;DHT22;21086;44.780;17.194;2023-01-16T02:53:45;11.30;99.90
34877;DHT22;21086;44.780;17.194;2023-01-16T02:56:19;11.30;99.90
34877;DHT22;21086;44.780;17.194;2023-01-16T02:58:48;11.40;99.90
34877;DHT22;21086;44.780;17.194;2023-01-16T03:01:18;11.50;99.90
34877;DHT22;21086;44.780;17.194;2023-01-16T03:09:18;11.80;99.90
34877;DHT22;21086;44.780;17.194;2023-01-16T03:30:59;12.20;99.90
34877;DHT22;21086;44.780;17.194;2023-01-16T03:36:15;12.20;99.90
34877;DHT22;21086;44.780;17.194;2023-01-16T03:38:48;12.30;99.90
34877;DHT22;21086;44.780;17.194;2023-01-16T03:41:21;12.40;99.90
34877;DHT22;21086;44.780;17.194;2023-01-16T03:43:52;12.40;99.90
34877;DHT22;21086;44.780;17.194;2023-01-16T03:46:26;12.40;99.90
34877;DHT22;21086;44.780;17.194;2023-01-16T03:49:23;12.30;99.90
34877;DHT22;21086;44.780;17.194;2023-01-16T03:51:52;12.00;99.90
34877;DHT22;21086;44.780;17.194;2023-01-16T03:57:32;11.20;99.90
34877;DHT22;21086;44.780;17.194;2023-01-16T04:00:01;11.10;99.90
34877;DHT22;21086;44.780;17.194;2023-01-16T04:02:36;10.90;99.90
34877;DHT22;21086;44.780;17.194;2023-01-16T04:05:08;10.90;99.90
34877;DHT22;21086;44.780;17.194;2023-01-16T04:07:40;11.00;99.90
34877;DHT22;21086;44.780;17.194;2023-01-16T04:10:13;11.00;99.90
34877;DHT22;21086;44.780;17.194;2023-01-16T04:12:48;11.00;99.90
34877;DHT22;21086;44.780;17.194;2023-01-16T04:15:18;11.00;99.90
34877;DHT22;21086;44.780;17.194;2023-01-16T04:17:46;11.00;99.90
34877;DHT22;21086;44.780;17.194;2023-01-16T04:20:13;11.20;99.90
34877;DHT22;21086;44.780;17.194;2023-01-16T04:22:41;11.30;99.90
34877;DHT22;21086;44.780;17.194;2023-01-16T04:25:13;11.30;99.90
34877;DHT22;21086;44.780;17.194;2023-01-16T04:27:40;11.30;99.90
34877;DHT22;21086;44.780;17.194;2023-01-16T04:30:08;11.30;99.90
34877;DHT22;21086;44.780;17.194;2023-01-16T04:32:35;11.30;99.90
34877;DHT22;21086;44.780;17.194;2023-01-16T04:35:03;11.50;99.90
34877;DHT22;21086;44.780;17.194;2023-01-16T04:37:30;11.50;99.90
34877;DHT22;21086;44.780;17.194;2023-01-16T04:39:57;11.40;99.90
34877;DHT22;21086;44.780;17.194;2023-01-16T04:42:25;11.30;99.90
34877;DHT22;21086;44.780;17.194;2023-01-16T04:44:52;11.10;99.90
34877;DHT22;21086;44.780;17.194;2023-01-16T04:47:19;10.80;99.90
34877;DHT22;21086;44.780;17.194;2023-01-16T04:49:46;10.80;99.90
34877;DHT22;21086;44.780;17.194;2023-01-16T04:52:13;10.50;99.90
34877;DHT22;21086;44.780;17.194;2023-01-16T04:54:40;10.30;99.90
34877;DHT22;21086;44.780;17.194;2023-01-16T04:57:07;10.10;99.90
34877;DHT22;21086;44.780;17.194;2023-01-16T04:59:34;10.10;99.90
34877;DHT22;21086;44.780;17.194;2023-01-16T05:02:01;10.00;99.90
34877;DHT22;21086;44.780;17.194;2023-01-16T05:04:28;9.90;99.90
34877;DHT22;21086;44.780;17.194;2023-01-16T05:06:55;9.80;99.90
34877;DHT22;21086;44.780;17.194;2023-01-16T05:09:23;9.80;99.90
34877;DHT22;21086;44.780;17.194;2023-01-16T05:11:49;9.70;99.90
34877;DHT22;21086;44.780;17.194;2023-01-16T05:14:16;9.70;99.90
34877;DHT22;21086;44.780;17.194;2023-01-16T05:16:43;9.70;99.90
34877;DHT22;21086;44.780;17.194;2023-01-16T05:19:10;9.70;99.90
34877;DHT22;21086;44.780;17.194;2023-01-16T05:21:37;9.80;99.90
34877;DHT22;21086;44.780;17.194;2023-01-16T05:24:05;9.90;99.90
34877;DHT22;21086;44.780;17.194;2023-01-16T05:26:32;10.00;99.90
34877;DHT22;21086;44.780;17.194;2023-01-16T05:28:58;10.10;99.90
34877;DHT22;21086;44.780;17.194;2023-01-16T05:31:25;10.10;99.90
34877;DHT22;21086;44.780;17.194;2023-01-16T05:33:52;10.20;99.90
34877;DHT22;21086;44.780;17.194;2023-01-16T05:36:19;10.30;99.90
34877;DHT22;21086;44.780;17.194;2023-01-16T05:38:47;10.30;99.90
34877;DHT22;21086;44.780;17.194;2023-01-16T05:41:13;10.40;99.90
34877;DHT22;21086;44.780;17.194;2023-01-16T05:43:40;10.40;99.90
34877;DHT22;21086;44.780;17.194;2023-01-16T05:46:07;10.50;99.90
34877;DHT22;21086;44.780;17.194;2023-01-16T05:48:35;10.50;99.90
34877;DHT22;21086;44.780;17.194;2023-01-16T05:51:03;10.40;99.90
34877;DHT22;21086;44.780;17.194;2023-01-16T05:53:33;10.20;99.90
34877;DHT22;21086;44.780;17.194;2023-01-16T05:56:09;10.10;99.90
34877;DHT22;21086;44.780;17.194;2023-01-16T05:58:37;10.10;99.90
34877;DHT22;21086;44.780;17.194;2023-01-16T06:01:04;10.00;99.90
34877;DHT22;21086;44.780;17.194;2023-01-16T06:03:32;10.00;99.90
34877;DHT22;21086;44.780;17.194;2023-01-16T06:05:59;9.90;99.90
34877;DHT22;21086;44.780;17.194;2023-01-16T06:08:27;9.80;99.90
34877;DHT22;21086;44.780;17.194;2023-01-16T06:10:56;9.80;99.90
34877;DHT22;21086;44.780;17.194;2023-01-16T06:13:23;9.90;99.90
34877;DHT22;21086;44.780;17.194;2023-01-16T06:15:50;9.70;99.90
34877;DHT22;21086;44.780;17.194;2023-01-16T06:18:17;9.60;99.90
34877;DHT22;21086;44.780;17.194;2023-01-16T06:20:44;9.50;99.90
34877;DHT22;21086;44.780;17.194;2023-01-16T06:23:11;9.40;99.90
34877;DHT22;21086;44.780;17.194;2023-01-16T06:25:38;9.40;99.90
34877;DHT22;21086;44.780;17.194;2023-01-16T06:28:05;9.50;99.90
34877;DHT22;21086;44.780;17.194;2023-01-16T06:30:31;9.60;99.90
34877;DHT22;21086;44.780;17.194;2023-01-16T06:32:58;9.60;99.90
34877;DHT22;21086;44.780;17.194;2023-01-16T06:35:25;9.70;99.90
34877;DHT22;21086;44.780;17.194;2023-01-16T06:37:52;9.80;99.90
34877;DHT22;21086;44.780;17.194;2023-01-16T06:40:19;9.80;99.90
34877;DHT22;21086;44.780;17.194;2023-01-16T06:42:46;9.90;99.90
34877;DHT22;21086;44.780;17.194;2023-01-16T06:45:13;10.00;99.90
34877;DHT22;21086;44.780;17.194;2023-01-16T06:47:40;9.90;99.90
34877;DHT22;21086;44.780;17.194;2023-01-16T06:50:08;10.00;99.90
34877;DHT22;21086;44.780;17.194;2023-01-16T06:52:35;9.90;99.90
34877;DHT22;21086;44.780;17.194;2023-01-16T06:55:02;9.80;99.90
34877;DHT22;21086;44.780;17.194;2023-01-16T06:57:29;9.80;99.90
34877;DHT22;21086;44.780;17.194;2023-01-16T06:59:56;9.80;99.90
34877;DHT22;21086;44.780;17.194;2023-01-16T07:02:23;9.90;99.90
34877;DHT22;21086;44.780;17.194;2023-01-16T07:04:50;9.80;99.90
34877;DHT22;21086;44.780;17.194;2023-01-16T07:07:17;9.90;99.90
34877;DHT22;21086;44.780;17.194;2023-01-16T07:09:44;9.80;99.90
34877;DHT22;21086;44.780;17.194;2023-01-16T07:12:11;9.80;99.90
34877;DHT22;21086;44.780;17.194;2023-01-16T07:14:37;9.80;99.90
34877;DHT22;21086;44.780;17.194;2023-01-16T07:17:23;9.90;99.90
34877;DHT22;21086;44.780;17.194;2023-01-16T07:20:10;9.90;99.90
34877;DHT22;21086;44.780;17.194;2023-01-16T07:22:56;9.80;99.90
34877;DHT22;21086;44.780;17.194;2023-01-16T07:25:32;9.70;99.90
34877;DHT22;21086;44.780;17.194;2023-01-16T07:28:01;9.70;99.90
34877;DHT22;21086;44.780;17.194;2023-01-16T07:30:28;9.70;99.90
34877;DHT22;21086;44.780;17.194;2023-01-16T07:32:55;9.80;99.90
34877;DHT22;21086;44.780;17.194;2023-01-16T07:35:22;9.90;99.90
34877;DHT22;21086;44.780;17.194;2023-01-16T07:37:49;9.90;99.90
34877;DHT22;21086;44.780;17.194;2023-01-16T07:40:18;9.80;99.90
34877;DHT22;21086;44.780;17.194;2023-01-16T07:42:45;9.80;99.90
34877;DHT22;21086;44.780;17.194;2023-01-16T07:45:12;9.80;99.90
34877;DHT22;21086;44.780;17.194;2023-01-16T07:47:38;9.90;99.90
34877;DHT22;21086;44.780;17.194;2023-01-16T07:50:06;10.00;99.90
34877;DHT22;21086;44.780;17.194;2023-01-16T07:52:33;10.10;99.90
34877;DHT22;21086;44.780;17.194;2023-01-16T07:55:00;10.00;99.90
34877;DHT22;21086;44.780;17.194;2023-01-16T07:57:27;10.10;99.90
34877;DHT22;21086;44.780;17.194;2023-01-16T07:59:54;10.10;99.90
34877;DHT22;21086;44.780;17.194;2023-01-16T08:02:21;10.10;99.90
34877;DHT22;21086;44.780;17.194;2023-01-16T08:04:48;10.10;99.90
34877;DHT22;21086;44.780;17.194;2023-01-16T08:07:15;10.20;99.90
34877;DHT22;21086;44.780;17.194;2023-01-16T08:09:42;10.20;99.90
34877;DHT22;21086;44.780;17.194;2023-01-16T08:12:09;10.10;99.90
34877;DHT22;21086;44.780;17.194;2023-01-16T08:14:36;10.10;99.90
34877;DHT22;21086;44.780;17.194;2023-01-16T08:17:03;10.10;99.90
34877;DHT22;21086;44.780;17.194;2023-01-16T08:19:30;10.20;99.90
34877;DHT22;21086;44.780;17.194;2023-01-16T08:21:57;10.30;99.90
34877;DHT22;21086;44.780;17.194;2023-01-16T08:24:24;10.40;99.90
34877;DHT22;21086;44.780;17.194;2023-01-16T08:26:52;10.40;99.90
34877;DHT22;21086;44.780;17.194;2023-01-16T08:29:19;10.40;99.90
34877;DHT22;21086;44.780;17.194;2023-01-16T08:31:46;10.40;99.90
34877;DHT22;21086;44.780;17.194;2023-01-16T08:34:13;10.40;99.90
34877;DHT22;21086;44.780;17.194;2023-01-16T08:36:41;10.50;99.90
34877;DHT22;21086;44.780;17.194;2023-01-16T08:39:12;10.60;99.90
34877;DHT22;21086;44.780;17.194;2023-01-16T08:41:39;10.60;99.90
34877;DHT22;21086;44.780;17.194;2023-01-16T08:44:24;10.70;99.90
34877;DHT22;21086;44.780;17.194;2023-01-16T08:47:28;10.70;99.90
34877;DHT22;21086;44.780;17.194;2023-01-16T08:50:18;10.80;99.90
34877;DHT22;21086;44.780;17.194;2023-01-16T08:53:04;10.80;99.90
34877;DHT22;21086;44.780;17.194;2023-01-16T08:55:32;10.70;99.90
34877;DHT22;21086;44.780;17.194;2023-01-16T08:57:58;10.90;99.90
34877;DHT22;21086;44.780;17.194;2023-01-16T09:00:29;10.90;99.90
34877;DHT22;21086;44.780;17.194;2023-01-16T09:02:57;10.90;99.90
34877;DHT22;21086;44.780;17.194;2023-01-16T09:05:26;11.00;99.90
34877;DHT22;21086;44.780;17.194;2023-01-16T09:07:54;11.10;99.90
34877;DHT22;21086;44.780;17.194;2023-01-16T09:10:21;11.30;99.90
34877;DHT22;21086;44.780;17.194;2023-01-16T09:12:48;11.30;99.90
34877;DHT22;21086;44.780;17.194;2023-01-16T09:15:34;11.40;99.90
34877;DHT22;21086;44.780;17.194;2023-01-16T09:18:01;11.30;99.90
34877;DHT22;21086;44.780;17.194;2023-01-16T09:20:28;11.30;99.90
34877;DHT22;21086;44.780;17.194;2023-01-16T09:22:59;11.30;99.90
34877;DHT22;21086;44.780;17.194;2023-01-16T09:25:28;11.00;99.90
34877;DHT22;21086;44.780;17.194;2023-01-16T09:27:55;10.70;99.90
34877;DHT22;21086;44.780;17.194;2023-01-16T09:30:22;10.60;99.90
34877;DHT22;21086;44.780;17.194;2023-01-16T09:32:49;10.50;99.90
34877;DHT22;21086;44.780;17.194;2023-01-16T09:35:16;10.40;99.90
34877;DHT22;21086;44.780;17.194;2023-01-16T09:37:44;10.40;99.90
34877;DHT22;21086;44.780;17.194;2023-01-16T09:40:18;10.50;99.90
34877;DHT22;21086;44.780;17.194;2023-01-16T09:42:59;10.50;99.90
34877;DHT22;21086;44.780;17.194;2023-01-16T09:45:53;10.50;99.90
34877;DHT22;21086;44.780;17.194;2023-01-16T09:48:30;10.50;99.90
34877;DHT22;21086;44.780;17.194;2023-01-16T09:51:02;10.40;99.90
34877;DHT22;21086;44.780;17.194;2023-01-16T09:57:02;10.40;99.90
34877;DHT22;21086;44.780;17.194;2023-01-16T09:59:53;10.20;99.90
34877;DHT22;21086;44.780;17.194;2023-01-16T10:02:30;10.00;99.90
34877;DHT22;21086;44.780;17.194;2023-01-16T10:05:01;9.90;99.90
34877;DHT22;21086;44.780;17.194;2023-01-16T10:10:46;9.80;99.90
34877;DHT22;21086;44.780;17.194;2023-01-16T10:16:37;9.60;99.90
34877;DHT22;21086;44.780;17.194;2023-01-16T10:24:35;9.30;99.90
34877;DHT22;21086;44.780;17.194;2023-01-16T10:27:33;9.10;99.90
34877;DHT22;21086;44.780;17.194;2023-01-16T10:33:10;8.80;99.90
34877;DHT22;21086;44.780;17.194;2023-01-16T10:35:41;8.60;99.90
34877;DHT22;21086;44.780;17.194;2023-01-16T10:38:26;8.60;99.90
34877;DHT22;21086;44.780;17.194;2023-01-16T10:41:19;8.70;99.90
34877;DHT22;21086;44.780;17.194;2023-01-16T10:44:32;8.70;99.90
34877;DHT22;21086;44.780;17.194;2023-01-16T10:47:31;8.60;99.90
34877;DHT22;21086;44.780;17.194;2023-01-16T10:50:21;8.80;99.90
34877;DHT22;21086;44.780;17.194;2023-01-16T10:53:04;8.90;99.90
34877;DHT22;21086;44.780;17.194;2023-01-16T10:55:34;9.00;99.90
34877;DHT22;21086;44.780;17.194;2023-01-16T11:00:45;9.00;99.90
34877;DHT22;21086;44.780;17.194;2023-01-16T11:08:42;10.40;99.90
34877;DHT22;21086;44.780;17.194;2023-01-16T11:11:14;8.30;99.90
34877;DHT22;21086;44.780;17.194;2023-01-16T11:14:05;8.10;99.90
34877;DHT22;21086;44.780;17.194;2023-01-16T11:16:56;8.00;99.90
34877;DHT22;21086;44.780;17.194;2023-01-16T11:19:50;7.90;99.90
34877;DHT22;21086;44.780;17.194;2023-01-16T11:22:24;7.90;99.90
34877;DHT22;21086;44.780;17.194;2023-01-16T11:24:58;7.80;99.90
34877;DHT22;21086;44.780;17.194;2023-01-16T11:27:30;7.80;99.90
34877;DHT22;21086;44.780;17.194;2023-01-16T11:30:07;7.80;99.90
34877;DHT22;21086;44.780;17.194;2023-01-16T11:32:36;7.70;99.90
34877;DHT22;21086;44.780;17.194;2023-01-16T11:35:12;7.60;99.90
34877;DHT22;21086;44.780;17.194;2023-01-16T11:37:45;7.60;99.90
34877;DHT22;21086;44.780;17.194;2023-01-16T11:40:21;7.70;99.90
34877;DHT22;21086;44.780;17.194;2023-01-16T11:42:57;7.80;99.90
34877;DHT22;21086;44.780;17.194;2023-01-16T11:45:47;7.80;99.90
34877;DHT22;21086;44.780;17.194;2023-01-16T11:48:40;7.70;99.90
34877;DHT22;21086;44.780;17.194;2023-01-16T11:51:17;7.60;99.90
34877;DHT22;21086;44.780;17.194;2023-01-16T11:53:46;7.60;99.90
34877;DHT22;21086;44.780;17.194;2023-01-16T11:56:35;6.40;99.90
34877;DHT22;21086;44.780;17.194;2023-01-16T12:04:36;7.70;99.90
34877;DHT22;21086;44.780;17.194;2023-01-16T12:07:17;7.70;99.90
34877;DHT22;21086;44.780;17.194;2023-01-16T12:10:02;7.80;99.90
34877;DHT22;21086;44.780;17.194;2023-01-16T12:12:35;7.90;99.90
34877;DHT22;21086;44.780;17.194;2023-01-16T12:15:41;8.00;99.90
34877;DHT22;21086;44.780;17.194;2023-01-16T12:18:31;8.20;99.90
34877;DHT22;21086;44.780;17.194;2023-01-16T12:21:03;8.30;99.90
34877;DHT22;21086;44.780;17.194;2023-01-16T12:26:21;8.50;99.90
34877;DHT22;21086;44.780;17.194;2023-01-16T12:34:33;8.90;99.90
34877;DHT22;21086;44.780;17.194;2023-01-16T12:40:07;8.70;99.90
34877;DHT22;21086;44.780;17.194;2023-01-16T12:59:43;8.80;99.90
34877;DHT22;21086;44.780;17.194;2023-01-16T13:04:46;9.20;99.90
34877;DHT22;21086;44.780;17.194;2023-01-16T13:07:16;9.40;99.90
34877;DHT22;21086;44.780;17.194;2023-01-16T13:12:39;10.00;99.90
34877;DHT22;21086;44.780;17.194;2023-01-16T13:15:30;10.30;99.90
34877;DHT22;21086;44.780;17.194;2023-01-16T13:18:06;10.40;99.90
34877;DHT22;21086;44.780;17.194;2023-01-16T13:20:36;10.40;99.90
34877;DHT22;21086;44.780;17.194;2023-01-16T13:23:16;10.40;99.90
34877;DHT22;21086;44.780;17.194;2023-01-16T13:28:48;10.70;99.90
34877;DHT22;21086;44.780;17.194;2023-01-16T13:33:59;11.00;99.90
34877;DHT22;21086;44.780;17.194;2023-01-16T13:42:29;14.10;99.90
34877;DHT22;21086;44.780;17.194;2023-01-16T13:45:03;17.70;99.90
34877;DHT22;21086;44.780;17.194;2023-01-16T13:47:51;19.30;99.90
34877;DHT22;21086;44.780;17.194;2023-01-16T13:50:25;21.20;99.90
34877;DHT22;21086;44.780;17.194;2023-01-16T13:52:56;22.40;99.90
34877;DHT22;21086;44.780;17.194;2023-01-16T13:55:39;22.30;99.90
34877;DHT22;21086;44.780;17.194;2023-01-16T13:58:13;21.30;99.90
34877;DHT22;21086;44.780;17.194;2023-01-16T14:00:42;21.10;99.90
34877;DHT22;21086;44.780;17.194;2023-01-16T14:03:18;21.90;99.90
34877;DHT22;21086;44.780;17.194;2023-01-16T14:05:50;22.80;99.90
34877;DHT22;21086;44.780;17.194;2023-01-16T14:08:25;23.40;99.90
34877;DHT22;21086;44.780;17.194;2023-01-16T14:17:25;23.90;99.90
34877;DHT22;21086;44.780;17.194;2023-01-16T14:22:34;24.90;99.90
34877;DHT22;21086;44.780;17.194;2023-01-16T14:25:03;24.90;99.90
34877;DHT22;21086;44.780;17.194;2023-01-16T14:27:38;24.20;99.90
34877;DHT22;21086;44.780;17.194;2023-01-16T14:30:39;23.10;99.90
34877;DHT22;21086;44.780;17.194;2023-01-16T14:33:06;22.30;99.90
34877;DHT22;21086;44.780;17.194;2023-01-16T14:36:09;21.50;99.90
34877;DHT22;21086;44.780;17.194;2023-01-16T14:38:44;20.70;99.90
34877;DHT22;21086;44.780;17.194;2023-01-16T14:41:17;19.70;99.90
34877;DHT22;21086;44.780;17.194;2023-01-16T14:44:20;21.60;99.90
34877;DHT22;21086;44.780;17.194;2023-01-16T14:47:24;19.90;99.90
34877;DHT22;21086;44.780;17.194;2023-01-16T14:50:13;19.70;99.90
34877;DHT22;21086;44.780;17.194;2023-01-16T14:55:56;18.90;99.90
34877;DHT22;21086;44.780;17.194;2023-01-16T14:58:34;18.30;99.90
34877;DHT22;21086;44.780;17.194;2023-01-16T15:01:04;17.50;99.90
34877;DHT22;21086;44.780;17.194;2023-01-16T15:03:50;16.60;99.90
34877;DHT22;21086;44.780;17.194;2023-01-16T15:12:01;14.60;99.90
34877;DHT22;21086;44.780;17.194;2023-01-16T15:14:29;13.80;99.90
34877;DHT22;21086;44.780;17.194;2023-01-16T15:19:59;13.00;99.90
34877;DHT22;21086;44.780;17.194;2023-01-16T15:22:46;12.50;99.90
34877;DHT22;21086;44.780;17.194;2023-01-16T15:31:01;11.60;99.90
34877;DHT22;21086;44.780;17.194;2023-01-16T15:33:33;11.50;99.90
34877;DHT22;21086;44.780;17.194;2023-01-16T15:36:21;11.20;99.90
34877;DHT22;21086;44.780;17.194;2023-01-16T15:38:58;11.00;99.90
34877;DHT22;21086;44.780;17.194;2023-01-16T15:41:28;10.80;99.90
34877;DHT22;21086;44.780;17.194;2023-01-16T15:44:20;10.60;99.90
34877;DHT22;21086;44.780;17.194;2023-01-16T15:53:03;10.30;99.90
34877;DHT22;21086;44.780;17.194;2023-01-16T15:55:37;10.00;99.90
34877;DHT22;21086;44.780;17.194;2023-01-16T15:58:06;9.80;99.90
34877;DHT22;21086;44.780;17.194;2023-01-16T16:00:38;9.70;99.90
34877;DHT22;21086;44.780;17.194;2023-01-16T16:03:20;9.50;99.90
34877;DHT22;21086;44.780;17.194;2023-01-16T16:05:51;9.40;99.90
34877;DHT22;21086;44.780;17.194;2023-01-16T16:08:27;9.40;99.90
34877;DHT22;21086;44.780;17.194;2023-01-16T16:10:59;9.30;99.90
34877;DHT22;21086;44.780;17.194;2023-01-16T16:13:46;9.10;99.90
34877;DHT22;21086;44.780;17.194;2023-01-16T16:16:19;9.00;99.90
34877;DHT22;21086;44.780;17.194;2023-01-16T16:19:06;9.10;99.90
34877;DHT22;21086;44.780;17.194;2023-01-16T16:21:38;8.90;99.90
34877;DHT22;21086;44.780;17.194;2023-01-16T16:24:31;8.90;99.90
34877;DHT22;21086;44.780;17.194;2023-01-16T16:27:06;8.80;99.90
34877;DHT22;21086;44.780;17.194;2023-01-16T16:29:35;8.80;99.90
34877;DHT22;21086;44.780;17.194;2023-01-16T16:32:03;8.70;99.90
34877;DHT22;21086;44.780;17.194;2023-01-16T16:34:31;8.60;99.90
34877;DHT22;21086;44.780;17.194;2023-01-16T16:37:02;8.50;99.90
34877;DHT22;21086;44.780;17.194;2023-01-16T16:39:36;8.50;99.90
34877;DHT22;21086;44.780;17.194;2023-01-16T16:47:36;8.40;99.90
34877;DHT22;21086;44.780;17.194;2023-01-16T16:50:32;8.40;99.90
34877;DHT22;21086;44.780;17.194;2023-01-16T16:53:22;8.40;99.90
34877;DHT22;21086;44.780;17.194;2023-01-16T16:56:10;8.30;99.90
34877;DHT22;21086;44.780;17.194;2023-01-16T16:58:43;8.30;99.90
34877;DHT22;21086;44.780;17.194;2023-01-16T17:01:15;8.30;99.90
34877;DHT22;21086;44.780;17.194;2023-01-16T17:03:44;8.30;99.90
34877;DHT22;21086;44.780;17.194;2023-01-16T17:06:19;8.30;99.90
34877;DHT22;21086;44.780;17.194;2023-01-16T17:08:46;8.30;99.90
34877;DHT22;21086;44.780;17.194;2023-01-16T17:11:14;8.30;99.90
34877;DHT22;21086;44.780;17.194;2023-01-16T17:13:41;8.30;99.90
34877;DHT22;21086;44.780;17.194;2023-01-16T17:16:20;8.30;99.90
34877;DHT22;21086;44.780;17.194;2023-01-16T17:18:48;8.30;99.90
34877;DHT22;21086;44.780;17.194;2023-01-16T17:21:18;8.30;99.90
34877;DHT22;21086;44.780;17.194;2023-01-16T17:23:45;8.30;99.90
34877;DHT22;21086;44.780;17.194;2023-01-16T17:26:12;8.40;99.90
34877;DHT22;21086;44.780;17.194;2023-01-16T17:28:42;8.40;99.90
34877;DHT22;21086;44.780;17.194;2023-01-16T17:31:15;8.50;99.90
34877;DHT22;21086;44.780;17.194;2023-01-16T17:33:45;8.60;99.90
34877;DHT22;21086;44.780;17.194;2023-01-16T17:36:23;8.50;99.90
34877;DHT22;21086;44.780;17.194;2023-01-16T17:38:51;8.40;99.90
34877;DHT22;21086;44.780;17.194;2023-01-16T17:41:23;8.50;99.90
34877;DHT22;21086;44.780;17.194;2023-01-16T17:44:17;8.50;99.90
34877;DHT22;21086;44.780;17.194;2023-01-16T17:47:04;8.40;99.90
34877;DHT22;21086;44.780;17.194;2023-01-16T17:49:32;8.50;99.90
34877;DHT22;21086;44.780;17.194;2023-01-16T17:51:59;8.30;99.90
34877;DHT22;21086;44.780;17.194;2023-01-16T17:54:26;8.30;99.90
34877;DHT22;21086;44.780;17.194;2023-01-16T17:57:11;8.20;99.90
34877;DHT22;21086;44.780;17.194;2023-01-16T17:59:38;8.20;99.90
34877;DHT22;21086;44.780;17.194;2023-01-16T18:02:07;8.30;99.90
34877;DHT22;21086;44.780;17.194;2023-01-16T18:04:34;8.20;99.90
34877;DHT22;21086;44.780;17.194;2023-01-16T18:07:01;8.30;99.90
34877;DHT22;21086;44.780;17.194;2023-01-16T18:09:31;8.20;99.90
34877;DHT22;21086;44.780;17.194;2023-01-16T18:11:58;8.20;99.90
34877;DHT22;21086;44.780;17.194;2023-01-16T18:14:44;8.10;99.90
34877;DHT22;21086;44.780;17.194;2023-01-16T18:17:30;8.10;99.90
34877;DHT22;21086;44.780;17.194;2023-01-16T18:19:58;8.00;99.90
34877;DHT22;21086;44.780;17.194;2023-01-16T18:22:29;8.00;99.90
34877;DHT22;21086;44.780;17.194;2023-01-16T18:24:58;8.00;99.90
34877;DHT22;21086;44.780;17.194;2023-01-16T18:27:26;8.10;99.90
34877;DHT22;21086;44.780;17.194;2023-01-16T18:29:53;8.20;99.90
34877;DHT22;21086;44.780;17.194;2023-01-16T18:32:20;8.10;99.90
34877;DHT22;21086;44.780;17.194;2023-01-16T18:34:56;8.00;99.90
34877;DHT22;21086;44.780;17.194;2023-01-16T18:37:43;8.00;99.90
34877;DHT22;21086;44.780;17.194;2023-01-16T18:40:33;8.10;99.90
34877;DHT22;21086;44.780;17.194;2023-01-16T18:43:19;8.30;99.90
34877;DHT22;21086;44.780;17.194;2023-01-16T18:46:04;8.40;99.90
34877;DHT22;21086;44.780;17.194;2023-01-16T18:48:51;8.40;99.90
34877;DHT22;21086;44.780;17.194;2023-01-16T18:51:36;8.50;99.90